createdAt,value
2023-02-07T00:01:17.968Z,-0.40
2023-02-07T00:03:45.632Z,-0.35
2023-02-07T00:06:21.462Z,-0.40
2023-02-07T00:08:49.240Z,-0.52
2023-02-07T00:11:20.001Z,-0.58
2023-02-07T00:13:48.991Z,-0.59
2023-02-07T00:16:21.573Z,-0.89
2023-02-07T00:18:48.804Z,-0.68
2023-02-07T00:21:19.216Z,-0.76
2023-02-07T00:23:46.805Z,-0.81
2023-02-07T00:26:15.143Z,-0.86
2023-02-07T00:28:44.034Z,-0.87
2023-02-07T00:31:14.073Z,-1.10
2023-02-07T00:33:44.141Z,-1.26
2023-02-07T00:36:13.666Z,-1.14
2023-02-07T00:38:40.606Z,-1.18
2023-02-07T00:41:07.208Z,-1.22
2023-02-07T00:43:34.234Z,-1.27
2023-02-07T00:46:03.019Z,-1.30
2023-02-07T00:48:30.896Z,-1.25
2023-02-07T00:50:58.392Z,-1.37
2023-02-07T00:53:26.596Z,-1.23
2023-02-07T00:55:53.307Z,-1.34
2023-02-07T00:58:23.594Z,-1.47
2023-02-07T01:00:50.437Z,-1.36
2023-02-07T01:03:17.744Z,-1.49
2023-02-07T01:05:44.300Z,-1.28
2023-02-07T01:08:11.462Z,-1.52
2023-02-07T01:10:42.376Z,-1.52
2023-02-07T01:13:09.167Z,-1.57
2023-02-07T01:15:44.265Z,-1.64
2023-02-07T01:18:10.996Z,-1.75
2023-02-07T01:20:37.880Z,-1.55
2023-02-07T01:23:05.680Z,-1.57
2023-02-07T01:25:36.147Z,-1.63
2023-02-07T01:28:03.090Z,-1.60
2023-02-07T01:30:29.591Z,-1.63
2023-02-07T01:32:56.171Z,-1.63
2023-02-07T01:35:22.567Z,-1.58
2023-02-07T01:37:49.035Z,-1.49
2023-02-07T01:40:16.217Z,-1.64
2023-02-07T01:42:42.881Z,-1.67
2023-02-07T01:45:15.422Z,-1.60
2023-02-07T01:47:41.994Z,-1.58
2023-02-07T01:50:10.311Z,-1.72
2023-02-07T01:52:41.001Z,-1.94
2023-02-07T01:55:15.010Z,-1.68
2023-02-07T01:57:42.966Z,-1.62
2023-02-07T02:00:10.662Z,-1.64
2023-02-07T02:02:38.389Z,-1.59
2023-02-07T02:05:06.315Z,-1.66
2023-02-07T02:07:36.149Z,-1.53
2023-02-07T02:10:03.012Z,-1.65
2023-02-07T02:12:32.362Z,-1.37
2023-02-07T02:15:43.258Z,-1.48
2023-02-07T02:18:27.733Z,-1.44
2023-02-07T02:23:52.566Z,-1.48
2023-02-07T02:26:45.231Z,-1.54
2023-02-07T02:29:49.248Z,-1.62
2023-02-07T02:32:41.657Z,-1.67
2023-02-07T02:35:13.048Z,-1.56
2023-02-07T02:37:54.887Z,-1.41
2023-02-07T02:40:49.616Z,-1.71
2023-02-07T02:43:25.060Z,-1.74
2023-02-07T02:46:03.114Z,-1.81
2023-02-07T02:48:31.284Z,-1.78
2023-02-07T02:50:58.747Z,-1.88
2023-02-07T02:53:25.348Z,-1.86
2023-02-07T02:56:26.221Z,-1.73
2023-02-07T02:59:13.322Z,-1.73
2023-02-07T03:02:02.672Z,-1.83
2023-02-07T03:04:48.661Z,-1.66
2023-02-07T03:07:29.996Z,-1.88
2023-02-07T03:10:07.859Z,-2.34
2023-02-07T03:12:52.126Z,-1.91
2023-02-07T03:16:01.742Z,-2.02
2023-02-07T03:18:28.284Z,-2.07
2023-02-07T03:21:21.910Z,-2.44
2023-02-07T03:23:52.341Z,-2.00
2023-02-07T03:26:20.817Z,-2.19
2023-02-07T03:28:49.782Z,-2.10
2023-02-07T03:31:19.817Z,-2.24
2023-02-07T03:33:49.647Z,-2.23
2023-02-07T03:36:19.292Z,-2.14
2023-02-07T03:38:46.500Z,-2.15
2023-02-07T03:41:35.978Z,-2.43
2023-02-07T03:44:07.260Z,-2.32
2023-02-07T03:46:40.827Z,-2.15
2023-02-07T03:49:11.747Z,-2.19
2023-02-07T03:51:38.469Z,-2.15
2023-02-07T03:54:04.992Z,-2.60
2023-02-07T03:56:31.767Z,-2.28
2023-02-07T03:58:58.699Z,-2.67
2023-02-07T04:01:25.350Z,-2.32
2023-02-07T04:03:52.579Z,-2.20
2023-02-07T04:06:19.316Z,-2.19
2023-02-07T04:08:45.855Z,-2.10
2023-02-07T04:11:12.560Z,-2.18
2023-02-07T04:13:43.561Z,-2.31
2023-02-07T04:16:10.091Z,-2.27
2023-02-07T04:18:36.595Z,-2.36
2023-02-07T04:21:05.931Z,-2.27
2023-02-07T04:23:35.952Z,-2.19
2023-02-07T04:26:03.433Z,-2.35
2023-02-07T04:28:31.394Z,-2.42
2023-02-07T04:30:58.530Z,-2.35
2023-02-07T04:33:25.183Z,-2.77
2023-02-07T04:36:03.512Z,-2.62
2023-02-07T04:38:30.429Z,-2.73
2023-02-07T04:41:04.595Z,-2.76
2023-02-07T04:43:32.445Z,-2.86
2023-02-07T04:45:59.124Z,-2.93
2023-02-07T04:48:25.654Z,-3.00
2023-02-07T04:50:52.841Z,-2.82
2023-02-07T04:53:19.416Z,-2.85
2023-02-07T04:55:50.779Z,-3.23
2023-02-07T04:58:17.769Z,-3.06
2023-02-07T05:00:44.800Z,-3.09
2023-02-07T05:03:11.852Z,-3.13
2023-02-07T05:05:42.966Z,-3.33
2023-02-07T05:08:11.385Z,-3.14
2023-02-07T05:10:38.570Z,-3.05
2023-02-07T05:13:06.037Z,-2.88
2023-02-07T05:15:32.446Z,-2.78
2023-02-07T05:17:58.936Z,-2.92
2023-02-07T05:20:26.034Z,-2.89
2023-02-07T05:22:52.838Z,-2.99
2023-02-07T05:25:19.362Z,-3.14
2023-02-07T05:27:45.879Z,-2.98
2023-02-07T05:30:12.939Z,-2.98
2023-02-07T05:32:57.841Z,-3.05
2023-02-07T05:35:24.288Z,-3.07
2023-02-07T05:37:50.737Z,-3.14
2023-02-07T05:40:17.426Z,-3.14
2023-02-07T05:42:43.882Z,-3.07
2023-02-07T05:45:10.787Z,-3.09
2023-02-07T05:47:37.245Z,-3.13
2023-02-07T05:50:04.151Z,-3.06
2023-02-07T05:52:30.951Z,-2.94
2023-02-07T05:54:57.728Z,-3.03
2023-02-07T05:57:24.131Z,-2.89
2023-02-07T05:59:50.555Z,-3.03
2023-02-07T06:02:19.337Z,-2.98
2023-02-07T06:04:45.926Z,-2.95
2023-02-07T06:07:12.327Z,-3.00
2023-02-07T06:09:38.918Z,-2.90
2023-02-07T06:12:05.729Z,-2.94
2023-02-07T06:14:32.187Z,-2.96
2023-02-07T06:16:58.780Z,-2.99
2023-02-07T06:19:25.252Z,-3.09
2023-02-07T06:21:51.653Z,-2.90
2023-02-07T06:24:18.141Z,-3.14
2023-02-07T06:26:47.050Z,-3.09
2023-02-07T06:29:14.234Z,-3.21
2023-02-07T06:31:40.685Z,-3.28
2023-02-07T06:34:07.657Z,-3.36
2023-02-07T06:36:34.146Z,-3.33
2023-02-07T06:39:01.371Z,-3.28
2023-02-07T06:41:27.842Z,-3.20
2023-02-07T06:43:54.262Z,-3.31
2023-02-07T06:46:20.780Z,-3.35
2023-02-07T06:48:47.208Z,-3.30
2023-02-07T06:51:13.856Z,-3.43
2023-02-07T06:53:40.368Z,-3.61
2023-02-07T06:56:07.036Z,-3.55
2023-02-07T06:58:34.260Z,-3.39
2023-02-07T07:01:04.941Z,-3.59
2023-02-07T07:03:31.388Z,-3.59
2023-02-07T07:05:58.564Z,-3.57
2023-02-07T07:08:31.042Z,-3.56
2023-02-07T07:10:57.618Z,-3.32
2023-02-07T07:13:24.448Z,-3.64
2023-02-07T07:15:51.081Z,-3.50
2023-02-07T07:18:17.566Z,-3.45
2023-02-07T07:20:44.018Z,-3.44
2023-02-07T07:23:10.450Z,-3.36
2023-02-07T07:25:37.034Z,-3.36
2023-02-07T07:28:03.775Z,-3.51
2023-02-07T07:30:30.274Z,-3.33
2023-02-07T07:32:57.222Z,-3.56
2023-02-07T07:35:23.837Z,-3.37
2023-02-07T07:37:50.257Z,-3.27
2023-02-07T07:40:16.828Z,-3.14
2023-02-07T07:42:43.253Z,-3.14
2023-02-07T07:45:11.201Z,-3.02
2023-02-07T07:47:38.485Z,-3.04
2023-02-07T07:50:05.615Z,-3.31
2023-02-07T07:52:32.462Z,-3.32
2023-02-07T07:54:58.906Z,-3.23
2023-02-07T07:57:28.161Z,-3.18
2023-02-07T07:59:55.536Z,-2.98
2023-02-07T08:02:22.960Z,-2.59
2023-02-07T08:04:49.790Z,-2.77
2023-02-07T08:07:16.255Z,-2.19
2023-02-07T08:09:42.992Z,-2.55
2023-02-07T08:12:09.573Z,-1.69
2023-02-07T08:14:38.570Z,-1.78
2023-02-07T08:17:05.039Z,-1.98
2023-02-07T08:19:31.773Z,-1.04
2023-02-07T08:21:58.902Z,-0.25
2023-02-07T08:24:25.428Z,0.33
2023-02-07T08:26:51.901Z,0.03
2023-02-07T08:29:18.588Z,0.11
2023-02-07T08:31:45.102Z,-0.03
2023-02-07T08:34:12.077Z,0.51
2023-02-07T08:36:39.510Z,0.78
2023-02-07T08:39:06.796Z,0.49
2023-02-07T08:41:33.400Z,0.53
2023-02-07T08:43:59.808Z,0.73
2023-02-07T08:46:26.348Z,0.61
2023-02-07T08:48:52.805Z,0.80
2023-02-07T08:51:19.270Z,1.21
2023-02-07T08:53:50.635Z,1.69
2023-02-07T08:56:17.183Z,2.51
2023-02-07T08:58:43.642Z,2.32
2023-02-07T09:01:11.533Z,2.58
2023-02-07T09:03:38.776Z,2.27
2023-02-07T09:06:05.891Z,2.81
2023-02-07T09:08:32.444Z,2.31
2023-02-07T09:10:58.896Z,0.74
2023-02-07T09:13:25.335Z,2.60
2023-02-07T09:15:56.193Z,2.67
2023-02-07T09:18:23.568Z,1.61
2023-02-07T09:20:54.583Z,2.69
2023-02-07T09:23:21.103Z,3.58
2023-02-07T09:25:50.973Z,2.50
2023-02-07T09:28:18.292Z,3.78
2023-02-07T09:30:47.053Z,2.40
2023-02-07T09:33:14.744Z,2.83
2023-02-07T09:35:43.826Z,2.65
2023-02-07T09:38:14.545Z,2.98
2023-02-07T09:40:41.647Z,3.92
2023-02-07T09:43:52.350Z,4.50
2023-02-07T09:46:28.549Z,4.30
2023-02-07T09:49:01.576Z,4.09
2023-02-07T09:51:28.396Z,4.47
2023-02-07T09:54:06.437Z,4.65
2023-02-07T09:56:35.514Z,5.76
2023-02-07T09:59:29.808Z,5.21
2023-02-07T10:02:03.750Z,4.30
2023-02-07T10:04:41.598Z,4.98
2023-02-07T10:07:13.304Z,4.30
2023-02-07T10:09:45.161Z,5.00
2023-02-07T10:12:35.432Z,3.42
2023-02-07T10:15:17.023Z,3.74
2023-02-07T10:18:03.208Z,2.42
2023-02-07T10:20:46.810Z,4.44
2023-02-07T10:23:38.174Z,4.35
2023-02-07T10:26:10.487Z,5.28
2023-02-07T10:29:04.057Z,3.49
2023-02-07T10:31:33.545Z,6.11
2023-02-07T10:34:14.693Z,4.82
2023-02-07T10:36:49.567Z,5.59
2023-02-07T10:39:31.712Z,3.55
2023-02-07T10:41:59.514Z,3.47
2023-02-07T10:44:28.606Z,4.33
2023-02-07T10:47:05.132Z,5.00
2023-02-07T10:49:34.590Z,7.16
2023-02-07T10:52:23.102Z,6.27
2023-02-07T10:54:52.855Z,6.04
2023-02-07T10:57:20.782Z,5.62
2023-02-07T10:59:48.995Z,3.79
2023-02-07T11:02:33.372Z,5.52
2023-02-07T11:05:27.574Z,5.67
2023-02-07T11:07:59.282Z,4.99
2023-02-07T11:10:33.909Z,4.91
2023-02-07T11:13:02.579Z,4.55
2023-02-07T11:15:53.504Z,4.33
2023-02-07T11:18:44.812Z,4.98
2023-02-07T11:21:26.255Z,6.41
2023-02-07T11:23:56.571Z,4.38
2023-02-07T11:26:23.925Z,5.50
2023-02-07T11:29:02.321Z,5.15
2023-02-07T11:31:32.571Z,4.63
2023-02-07T11:34:28.593Z,5.67
2023-02-07T11:37:07.850Z,4.71
2023-02-07T11:39:34.300Z,5.32
2023-02-07T11:42:02.724Z,4.78
2023-02-07T11:44:30.950Z,6.14
2023-02-07T11:47:03.432Z,4.91
2023-02-07T11:49:55.037Z,4.11
2023-02-07T11:52:24.092Z,6.03
2023-02-07T11:54:54.934Z,4.99
2023-02-07T11:57:23.832Z,6.35
2023-02-07T12:00:08.613Z,5.78
2023-02-07T12:02:35.705Z,6.69
2023-02-07T12:05:20.934Z,6.83
2023-02-07T12:07:56.114Z,7.24
2023-02-07T12:10:34.805Z,5.52
2023-02-07T12:13:07.459Z,6.19
2023-02-07T12:15:54.892Z,4.11
2023-02-07T12:18:47.974Z,6.58
2023-02-07T12:21:41.154Z,6.46
2023-02-07T12:24:22.840Z,6.40
2023-02-07T12:26:55.988Z,5.83
2023-02-07T12:29:49.477Z,8.21
2023-02-07T12:32:31.585Z,7.38
2023-02-07T12:35:24.564Z,8.60
2023-02-07T12:38:12.609Z,8.11
2023-02-07T12:40:47.140Z,7.08
2023-02-07T12:43:24.159Z,5.68
2023-02-07T12:46:00.557Z,7.21
2023-02-07T12:48:29.764Z,7.88
2023-02-07T12:51:25.173Z,8.52
2023-02-07T12:54:19.666Z,6.66
2023-02-07T12:56:55.375Z,6.21
2023-02-07T12:59:21.992Z,8.26
2023-02-07T13:02:26.122Z,7.27
2023-02-07T13:05:28.458Z,7.62
2023-02-07T13:08:07.813Z,6.10
2023-02-07T13:10:54.224Z,6.48
2023-02-07T13:13:36.345Z,7.63
2023-02-07T13:16:12.589Z,6.54
2023-02-07T13:19:03.453Z,6.92
2023-02-07T13:21:53.927Z,5.99
2023-02-07T13:24:23.730Z,8.37
2023-02-07T13:27:01.385Z,6.64
2023-02-07T13:29:30.743Z,7.21
2023-02-07T13:32:01.647Z,7.20
2023-02-07T13:34:40.458Z,6.62
2023-02-07T13:37:16.765Z,5.80
2023-02-07T13:40:25.345Z,6.29
2023-02-07T13:43:08.468Z,5.48
2023-02-07T13:45:38.341Z,4.19
2023-02-07T13:48:46.328Z,5.37
2023-02-07T13:51:24.337Z,5.07
2023-02-07T13:54:23.928Z,5.18
2023-02-07T13:57:19.490Z,5.41
2023-02-07T14:00:07.954Z,4.36
2023-02-07T14:02:42.740Z,4.04
2023-02-07T14:05:18.759Z,4.16
2023-02-07T14:07:54.809Z,3.40
2023-02-07T14:10:46.969Z,3.77
2023-02-07T14:13:28.777Z,3.54
2023-02-07T14:15:59.184Z,3.75
2023-02-07T14:18:47.857Z,3.02
2023-02-07T14:21:24.911Z,3.29
2023-02-07T14:23:57.400Z,3.30
2023-02-07T14:26:50.664Z,2.89
2023-02-07T14:29:22.927Z,2.91
2023-02-07T14:34:21.332Z,2.65
2023-02-07T14:36:48.733Z,2.76
2023-02-07T14:39:18.148Z,2.36
2023-02-07T14:41:46.103Z,2.38
2023-02-07T14:44:23.567Z,2.78
2023-02-07T14:46:56.103Z,2.53
2023-02-07T14:49:45.950Z,3.07
2023-02-07T14:52:15.925Z,2.49
2023-02-07T14:54:47.465Z,2.59
2023-02-07T14:57:38.435Z,2.63
2023-02-07T15:00:07.575Z,2.45
2023-02-07T15:02:40.091Z,2.41
2023-02-07T15:05:17.705Z,2.65
2023-02-07T15:07:47.055Z,2.41
2023-02-07T15:10:22.747Z,2.41
2023-02-07T15:12:50.457Z,2.16
2023-02-07T15:15:20.775Z,2.27
2023-02-07T15:17:48.403Z,1.95
2023-02-07T15:20:18.159Z,1.99
2023-02-07T15:22:48.862Z,1.79
2023-02-07T15:25:16.306Z,1.91
2023-02-07T15:27:42.940Z,1.88
2023-02-07T15:30:20.298Z,1.82
2023-02-07T15:32:47.396Z,1.75
2023-02-07T15:35:28.709Z,1.64
2023-02-07T15:38:14.503Z,1.54
2023-02-07T15:40:41.378Z,1.30
2023-02-07T15:43:24.005Z,1.28
2023-02-07T15:46:01.994Z,1.29
2023-02-07T15:48:31.733Z,1.41
2023-02-07T15:51:02.567Z,1.21
2023-02-07T15:53:31.037Z,1.20
2023-02-07T15:55:58.028Z,1.04
2023-02-07T15:58:33.039Z,1.14
2023-02-07T16:01:14.869Z,1.01
2023-02-07T16:03:47.253Z,0.95
2023-02-07T16:06:20.730Z,1.02
2023-02-07T16:08:53.587Z,0.91
2023-02-07T16:11:32.655Z,0.72
2023-02-07T16:14:20.701Z,0.71
2023-02-07T16:16:50.642Z,0.72
2023-02-07T16:19:30.398Z,0.55
2023-02-07T16:22:07.913Z,0.40
2023-02-07T16:24:37.578Z,0.33
2023-02-07T16:27:04.885Z,0.21
2023-02-07T16:29:31.486Z,0.17
2023-02-07T16:31:58.214Z,0.16
2023-02-07T16:34:24.756Z,0.17
2023-02-07T16:36:54.211Z,0.11
2023-02-07T16:39:23.249Z,0.11
2023-02-07T16:41:54.761Z,0.16
2023-02-07T16:44:25.991Z,0.07
2023-02-07T16:46:52.614Z,-0.07
2023-02-07T16:49:24.215Z,-0.13
2023-02-07T16:51:51.341Z,-0.23
2023-02-07T16:54:18.129Z,-0.16
2023-02-07T16:56:46.692Z,-0.29
2023-02-07T16:59:23.872Z,-0.30
2023-02-07T17:01:55.128Z,-0.35
2023-02-07T17:04:22.400Z,-0.41
2023-02-07T17:06:49.083Z,-0.27
2023-02-07T17:09:21.968Z,-0.35
2023-02-07T17:11:48.878Z,-0.25
2023-02-07T17:14:21.131Z,-0.38
2023-02-07T17:16:48.233Z,-0.47
2023-02-07T17:19:23.009Z,-0.40
2023-02-07T17:21:50.812Z,-0.50
2023-02-07T17:24:17.629Z,-0.47
2023-02-07T17:26:50.783Z,-0.46
2023-02-07T17:29:18.559Z,-0.58
2023-02-07T17:31:46.041Z,-0.68
2023-02-07T17:34:12.681Z,-0.58
2023-02-07T17:36:43.118Z,-0.73
2023-02-07T17:39:14.131Z,-0.62
2023-02-07T17:41:40.830Z,-0.54
2023-02-07T17:44:07.536Z,-0.56
2023-02-07T17:46:34.530Z,-0.66
2023-02-07T17:49:01.564Z,-0.83
2023-02-07T17:51:28.513Z,-0.95
2023-02-07T17:53:56.267Z,-0.86
2023-02-07T17:56:35.361Z,-0.94
2023-02-07T17:59:07.505Z,-1.02
2023-02-07T18:01:34.397Z,-0.95
2023-02-07T18:04:02.540Z,-0.99
2023-02-07T18:06:30.700Z,-1.06
2023-02-07T18:08:58.679Z,-0.97
2023-02-07T18:11:31.468Z,-0.93
2023-02-07T18:13:58.074Z,-0.88
2023-02-07T18:16:26.629Z,-0.95
2023-02-07T18:18:55.092Z,-1.06
2023-02-07T18:21:21.676Z,-1.04
2023-02-07T18:23:48.360Z,-0.94
2023-02-07T18:26:16.555Z,-0.90
2023-02-07T18:28:43.984Z,-0.95
2023-02-07T18:31:12.553Z,-0.87
2023-02-07T18:33:39.384Z,-0.77
2023-02-07T18:36:06.855Z,-0.81
2023-02-07T18:38:33.784Z,-0.85
2023-02-07T18:41:00.264Z,-0.77
2023-02-07T18:43:26.840Z,-1.12
2023-02-07T18:45:53.352Z,-1.07
2023-02-07T18:48:19.781Z,-1.10
2023-02-07T18:50:46.270Z,-1.19
2023-02-07T18:53:13.095Z,-1.19
2023-02-07T18:55:39.566Z,-1.25
2023-02-07T18:58:06.400Z,-1.22
2023-02-07T19:00:32.829Z,-1.19
2023-02-07T19:02:59.426Z,-1.25
2023-02-07T19:05:25.986Z,-1.38
2023-02-07T19:07:54.442Z,-1.36
2023-02-07T19:10:20.924Z,-1.35
2023-02-07T19:12:47.353Z,-1.48
2023-02-07T19:15:13.801Z,-1.55
2023-02-07T19:17:40.459Z,-1.44
2023-02-07T19:20:07.399Z,-1.55
2023-02-07T19:22:36.178Z,-1.65
2023-02-07T19:25:04.879Z,-1.55
2023-02-07T19:27:31.573Z,-1.60
2023-02-07T19:29:58.003Z,-1.54
2023-02-07T19:32:24.455Z,-1.50
2023-02-07T19:34:50.888Z,-1.60
2023-02-07T19:37:17.469Z,-1.58
2023-02-07T19:39:46.148Z,-1.55
2023-02-07T19:42:12.955Z,-1.54
2023-02-07T19:44:39.373Z,-1.59
2023-02-07T19:47:05.800Z,-1.70
2023-02-07T19:49:32.297Z,-1.73
2023-02-07T19:51:58.709Z,-1.78
2023-02-07T19:54:25.163Z,-1.52
2023-02-07T19:56:51.914Z,-1.52
2023-02-07T19:59:18.959Z,-1.57
2023-02-07T20:01:46.388Z,-1.64
2023-02-07T20:04:12.854Z,-1.54
2023-02-07T20:06:39.351Z,-1.72
2023-02-07T20:09:07.028Z,-1.69
2023-02-07T20:11:34.034Z,-1.87
2023-02-07T20:14:05.873Z,-1.83
2023-02-07T20:16:35.942Z,-1.94
2023-02-07T20:19:05.775Z,-2.03
2023-02-07T20:21:33.704Z,-2.04
2023-02-07T20:24:01.392Z,-2.13
2023-02-07T20:26:33.976Z,-2.07
2023-02-07T20:29:02.471Z,-2.11
2023-02-07T20:31:31.983Z,-1.99
2023-02-07T20:33:59.050Z,-2.09
2023-02-07T20:36:27.598Z,-2.01
2023-02-07T20:39:03.286Z,-2.09
2023-02-07T20:41:29.884Z,-1.98
2023-02-07T20:44:04.934Z,-2.18
2023-02-07T20:46:33.281Z,-2.32
2023-02-07T20:49:35.398Z,-2.05
2023-02-07T20:52:02.020Z,-2.13
2023-02-07T20:54:30.179Z,-2.33
2023-02-07T20:57:07.224Z,-2.28
2023-02-07T20:59:34.632Z,-2.42
2023-02-07T21:02:01.752Z,-2.37
2023-02-07T21:04:28.862Z,-2.24
2023-02-07T21:06:55.277Z,-2.17
2023-02-07T21:09:22.845Z,-2.11
2023-02-07T21:11:51.846Z,-2.14
2023-02-07T21:14:25.261Z,-2.19
2023-02-07T21:16:56.809Z,-2.20
2023-02-07T21:19:24.764Z,-2.02
2023-02-07T21:21:51.895Z,-2.51
2023-02-07T21:24:18.922Z,-2.20
2023-02-07T21:26:47.934Z,-2.26
2023-02-07T21:29:14.335Z,-2.40
2023-02-07T21:31:41.021Z,-2.62
2023-02-07T21:34:07.868Z,-2.56
2023-02-07T21:36:38.972Z,-2.56
2023-02-07T21:39:11.061Z,-2.68
2023-02-07T21:41:42.674Z,-2.57
2023-02-07T21:44:10.391Z,-2.66
2023-02-07T21:46:39.483Z,-2.81
2023-02-07T21:49:08.575Z,-2.72
2023-02-07T21:51:36.235Z,-2.74
2023-02-07T21:54:12.814Z,-2.75
2023-02-07T21:56:41.125Z,-2.61
2023-02-07T21:59:12.095Z,-2.75
2023-02-07T22:01:39.118Z,-2.78
2023-02-07T22:04:07.356Z,-2.74
2023-02-07T22:06:33.906Z,-2.76
2023-02-07T22:09:01.908Z,-2.77
2023-02-07T22:11:32.554Z,-2.76
2023-02-07T22:14:00.328Z,-2.71
2023-02-07T22:16:28.505Z,-2.70
2023-02-07T22:18:56.627Z,-2.71
2023-02-07T22:21:26.143Z,-2.58
2023-02-07T22:23:53.713Z,-2.44
2023-02-07T22:26:20.217Z,-2.50
2023-02-07T22:28:47.770Z,-2.35
2023-02-07T22:31:19.127Z,-2.55
2023-02-07T22:33:46.610Z,-2.46
2023-02-07T22:36:24.374Z,-2.38
2023-02-07T22:38:50.970Z,-2.55
2023-02-07T22:41:18.555Z,-2.43
2023-02-07T22:43:45.089Z,-2.49
2023-02-07T22:46:14.163Z,-2.55
2023-02-07T22:48:41.364Z,-2.95
2023-02-07T22:51:21.908Z,-2.52
2023-02-07T22:53:50.235Z,-2.73
2023-02-07T22:56:16.729Z,-2.86
2023-02-07T22:58:43.139Z,-2.92
2023-02-07T23:01:20.739Z,-2.79
2023-02-07T23:03:48.323Z,-3.12
2023-02-07T23:06:16.556Z,-3.02
2023-02-07T23:08:43.396Z,-3.12
2023-02-07T23:11:12.673Z,-3.17
2023-02-07T23:13:40.901Z,-3.20
2023-02-07T23:16:16.214Z,-3.28
2023-02-07T23:18:43.093Z,-3.28
2023-02-07T23:21:11.042Z,-3.22
2023-02-07T23:23:38.172Z,-3.26
2023-02-07T23:26:13.608Z,-3.62
2023-02-07T23:28:40.753Z,-3.29
2023-02-07T23:31:09.793Z,-3.23
2023-02-07T23:33:37.136Z,-3.17
2023-02-07T23:36:04.731Z,-3.27
2023-02-07T23:38:31.935Z,-3.18
2023-02-07T23:40:58.529Z,-3.17
2023-02-07T23:43:25.570Z,-3.15
2023-02-07T23:45:52.396Z,-3.13
2023-02-07T23:48:19.256Z,-3.23
2023-02-07T23:50:49.879Z,-3.35
2023-02-07T23:53:16.274Z,-3.52
2023-02-07T23:55:42.761Z,-3.50
2023-02-07T23:58:09.505Z,-3.45
